Scott Camp — WDF3203 — position and weather

sailwx.info

Track history (hours):
 
Tides and Currents Weather Stations Pressure Air Temp Water Temp Dewpoint Dewpoint Depression Visibility Wind Speed Wind Dir Waves Ship Positions

Scott Camp

Owner: Florida Marine Transporters, Inc., Mandeville, LA. More information available from US FCC via Universal Licensing System and Coast Guard Vessel Documentation Center.

Last reported at 2018-Jun-21 08:35 UTC. Time now 2018-Jun-21 23:59 UTC.
Position N 29°46' W 095°06'.

Length 27 m; draft 2.5 m.

Type: Towing. MMSI: 367437150.

Date/timePositionNaut miles runAvg speedWind from/ knotsBaromVisibWave heightAir tempDewpointWater temp
2018-Jun-21 08:35N 29°46' W 095°06'0 0.0
2018-Jun-21 08:11N 29°46' W 095°06'0 0.0
2018-Jun-21 07:54N 29°46' W 095°06'0 0.0
2018-Jun-21 07:20N 29°46' W 095°06'0 0.0
2018-Jun-21 07:00N 29°46' W 095°06'0 0.0
2018-Jun-21 06:30N 29°46' W 095°06'0 0.0
2018-Jun-21 06:00N 29°46' W 095°06'0 0.0
2018-Jun-21 05:21N 29°46' W 095°06'2 0.1
2018-Jun-20 01:45N 29°47' W 095°04'0 0.0
2018-Jun-20 01:23N 29°47' W 095°04'5 3.5
2018-Jun-20 00:03N 29°43' W 095°01'1 7.0
2018-Jun-19 23:55N 29°42' W 095°01'3 6.3
2018-Jun-19 23:25N 29°40' W 094°58'3 6.9
2018-Jun-19 22:59N 29°37' W 094°57'14 7.7
2018-Jun-19 21:08N 29°25' W 094°49'2 7.8
2018-Jun-19 20:55N 29°23' W 094°49'2 4.6
2018-Jun-19 20:30N 29°23' W 094°47'3 5.9
2018-Jun-19 19:58N 29°25' W 094°44'5 6.6
2018-Jun-19 19:09N 29°28' W 094°39'1 6.9
2018-Jun-19 18:58N 29°29' W 094°37'4 6.6
2018-Jun-19 18:25N 29°30' W 094°34'3 6.4
2018-Jun-19 17:58N 29°31' W 094°30'2 4.6
2018-Jun-19 17:29N 29°32' W 094°29'2 2.7
2018-Jun-19 16:54N 29°34' W 094°27'3 6.0
2018-Jun-19 16:28N 29°35' W 094°25'2 4.2
2018-Jun-19 16:00N 29°36' W 094°23'3 5.6
2018-Jun-19 15:30N 29°37' W 094°20'3 6.4
2018-Jun-19 15:00N 29°39' W 094°17'3 6.5
2018-Jun-19 14:30N 29°40' W 094°13'3 6.3
2018-Jun-19 14:00N 29°41' W 094°10'3 5.5
2018-Jun-19 13:30N 29°43' W 094°07'3 6.3
2018-Jun-19 13:00N 29°45' W 094°05'3 6.1
2018-Jun-19 12:30N 29°47' W 094°02'3 5.7
2018-Jun-19 12:00N 29°49' W 093°60'1 2.6
2018-Jun-19 11:31N 29°49' W 093°58'0 0.0
2018-Jun-19 11:00N 29°49' W 093°58'0 0.0
2018-Jun-19 10:30N 29°49' W 093°58'0 0.0
2018-Jun-19 10:00N 29°49' W 093°58'0 0.0
2018-Jun-19 09:30N 29°49' W 093°58'0 0.0
2018-Jun-19 09:00N 29°49' W 093°58'0 0.0
2018-Jun-19 08:30N 29°49' W 093°58'0 0.0
2018-Jun-19 08:00N 29°49' W 093°58'0 0.0
2018-Jun-19 07:30N 29°49' W 093°58'0 0.0
2018-Jun-19 07:00N 29°49' W 093°58'0 0.0
2018-Jun-19 06:30N 29°49' W 093°58'0 0.0
2018-Jun-19 06:00N 29°49' W 093°58'0 0.0
2018-Jun-19 05:30N 29°49' W 093°58'0 0.0
2018-Jun-19 05:00N 29°49' W 093°58'0 0.0
2018-Jun-19 04:30N 29°49' W 093°58'0 0.0
2018-Jun-19 04:00N 29°49' W 093°58'0 0.0
2018-Jun-19 03:30N 29°49' W 093°58'0 0.0
2018-Jun-19 03:00N 29°49' W 093°58'0 0.0
2018-Jun-19 02:30N 29°49' W 093°58'0 0.0
2018-Jun-19 02:00N 29°49' W 093°58'0 0.0
2018-Jun-19 01:30N 29°49' W 093°58'0 0.0
2018-Jun-19 01:00N 29°49' W 093°58'0 0.0
2018-Jun-19 00:30N 29°49' W 093°58'0 0.0
2018-Jun-19 00:00N 29°49' W 093°58'0 0.0
2018-Jun-18 23:30N 29°49' W 093°58'0 0.0
2018-Jun-18 23:00N 29°49' W 093°58'0 0.0
2018-Jun-18 22:30N 29°49' W 093°58'2 3.6
2018-Jun-18 22:00N 29°51' W 093°57'4 8.3
2018-Jun-18 21:30N 29°54' W 093°54'4 8.5
2018-Jun-18 21:00N 29°58' W 093°51'3 6.9
2018-Jun-18 20:30N 29°59' W 093°48'4 7.4
2018-Jun-18 20:00N 30°01' W 093°45'3 6.3
2018-Jun-18 19:30N 30°03' W 093°42'3 6.2
2018-Jun-18 19:00N 30°04' W 093°38'3 5.9
2018-Jun-18 18:30N 30°04' W 093°35'3 6.3
2018-Jun-18 18:00N 30°04' W 093°31'3 6.5
2018-Jun-18 17:30N 30°04' W 093°27'3 6.5
2018-Jun-18 17:00N 30°04' W 093°24'3 5.7
2018-Jun-18 16:30N 30°04' W 093°21'0 0.8
2018-Jun-18 16:00N 30°05' W 093°20'2 3.8
2018-Jun-18 15:30N 30°07' W 093°20'3 5.9
2018-Jun-18 15:00N 30°09' W 093°20'0 0.3
2018-Jun-18 14:30N 30°10' W 093°19'0 0.0
2018-Jun-18 14:00N 30°10' W 093°19'0 0.0
2018-Jun-18 13:30N 30°10' W 093°19'0 0.0
2018-Jun-18 12:58N 30°10' W 093°19'0 0.0
2018-Jun-18 12:30N 30°10' W 093°19'0 0.0
2018-Jun-18 12:00N 30°10' W 093°19'0 0.0
2018-Jun-18 11:30N 30°10' W 093°19'0 0.0
2018-Jun-18 11:00N 30°10' W 093°19'0 0.0
2018-Jun-18 10:30N 30°10' W 093°19'0 0.0
2018-Jun-18 10:00N 30°10' W 093°19'0 0.0
2018-Jun-18 09:30N 30°10' W 093°19'0 0.0
2018-Jun-18 09:00N 30°10' W 093°19'0 0.0
2018-Jun-18 08:30N 30°10' W 093°19'0 0.0
2018-Jun-18 08:00N 30°10' W 093°19'0 0.0
2018-Jun-18 07:30N 30°10' W 093°19'0 0.0
2018-Jun-18 07:00N 30°10' W 093°19'0 0.0
2018-Jun-18 06:30N 30°10' W 093°19'0 0.0
2018-Jun-18 06:00N 30°10' W 093°19'0 0.0
2018-Jun-18 05:30N 30°10' W 093°19'0 0.0
2018-Jun-18 05:00N 30°10' W 093°19'0 0.0
2018-Jun-18 04:30N 30°10' W 093°19'0 0.0
2018-Jun-18 04:00N 30°10' W 093°19'0 0.0
2018-Jun-18 03:30N 30°10' W 093°19'0 0.0
2018-Jun-18 03:00N 30°10' W 093°19'0 0.0
2018-Jun-18 02:30N 30°10' W 093°19'0 0.0
2018-Jun-18 01:58N 30°10' W 093°19'0 0.0
2018-Jun-18 01:30N 30°10' W 093°19'0 0.0
2018-Jun-18 01:00N 30°10' W 093°19'0 0.0
2018-Jun-18 00:30N 30°10' W 093°19'0 0.0
2018-Jun-17 23:59N 30°10' W 093°19'0 0.0
2018-Jun-17 23:30N 30°10' W 093°19'0 0.0
2018-Jun-17 23:00N 30°10' W 093°19'2 3.2
2018-Jun-17 22:30N 30°08' W 093°20'3 5.3
2018-Jun-17 22:00N 30°05' W 093°20'1 2.5
2018-Jun-17 21:30N 30°04' W 093°20'1 2.5
2018-Jun-17 21:00N 30°04' W 093°22'0 0.1
2018-Jun-17 20:30N 30°04' W 093°22'0 0.0
2018-Jun-17 20:00N 30°04' W 093°22'0 0.0
2018-Jun-17 19:30N 30°04' W 093°22'0 0.0
2018-Jun-17 19:00N 30°04' W 093°22'0 0.0
2018-Jun-17 18:30N 30°04' W 093°22'0 0.0
2018-Jun-17 18:00N 30°04' W 093°22'0 0.0
2018-Jun-17 17:30N 30°04' W 093°22'2 4.4
2018-Jun-17 16:59N 30°05' W 093°20'3 7.2
2018-Jun-17 16:30N 30°09' W 093°20'3 5.2
2018-Jun-17 16:00N 30°11' W 093°19'4 7.6
2018-Jun-17 15:30N 30°07' W 093°20'3 6.5
2018-Jun-17 15:00N 30°04' W 093°21'1 2.0
2018-Jun-17 14:30N 30°04' W 093°22'0 0.7
2018-Jun-17 14:00N 30°04' W 093°21'0 0.0
2018-Jun-17 13:30N 30°04' W 093°21'0 0.0
2018-Jun-17 13:00N 30°04' W 093°21'0 0.0
2018-Jun-17 12:30N 30°04' W 093°21'0 0.0
2018-Jun-17 12:00N 30°04' W 093°21'0 0.0
2018-Jun-17 11:30N 30°04' W 093°21'0 0.0
2018-Jun-17 11:00N 30°04' W 093°21'0 0.0
2018-Jun-17 10:30N 30°04' W 093°21'0 0.0
2018-Jun-17 10:00N 30°04' W 093°21'0 0.0
2018-Jun-17 09:30N 30°04' W 093°21'0 0.0
2018-Jun-17 09:00N 30°04' W 093°21'0 0.0
2018-Jun-17 08:29N 30°04' W 093°21'0 0.0
2018-Jun-17 08:00N 30°04' W 093°21'0 0.0
2018-Jun-17 07:30N 30°04' W 093°21'0 0.0
2018-Jun-17 07:00N 30°04' W 093°21'0 0.0
2018-Jun-17 06:30N 30°04' W 093°21'0 0.0
2018-Jun-17 06:00N 30°04' W 093°21'0 0.0
2018-Jun-17 05:25N 30°04' W 093°21'0 0.0
2018-Jun-17 05:00N 30°04' W 093°21'0 0.0
2018-Jun-17 04:30N 30°04' W 093°21'0 0.0
2018-Jun-17 04:00N 30°04' W 093°21'0 0.0
2018-Jun-17 03:30N 30°04' W 093°21'0 0.0
2018-Jun-17 03:00N 30°04' W 093°21'0 0.0
2018-Jun-17 02:30N 30°04' W 093°21'0 0.0
2018-Jun-17 02:00N 30°04' W 093°21'0 0.0
2018-Jun-17 01:30N 30°04' W 093°21'0 0.0
2018-Jun-17 01:00N 30°04' W 093°21'0 0.0
2018-Jun-17 00:30N 30°04' W 093°21'0 0.0
2018-Jun-17 00:00N 30°04' W 093°21'0 0.0
2018-Jun-16 23:30N 30°04' W 093°21'0 0.0
2018-Jun-16 23:00N 30°04' W 093°21'0 0.0
2018-Jun-16 22:30N 30°04' W 093°21'0 0.0
2018-Jun-16 22:00N 30°04' W 093°21'0 0.0
2018-Jun-16 21:30N 30°04' W 093°21'0 0.0
2018-Jun-16 21:00N 30°04' W 093°21'0 0.0
2018-Jun-16 20:30N 30°04' W 093°21'0 0.0
2018-Jun-16 20:00N 30°04' W 093°21'0 0.0
2018-Jun-16 19:30N 30°04' W 093°21'0 0.0
2018-Jun-16 19:00N 30°04' W 093°21'0 0.0
2018-Jun-16 18:30N 30°04' W 093°21'0 0.0
2018-Jun-16 18:00N 30°04' W 093°21'0 0.0
2018-Jun-16 17:30N 30°04' W 093°21'0 0.0
2018-Jun-16 17:00N 30°04' W 093°21'0 0.0
2018-Jun-16 16:30N 30°04' W 093°21'0 0.6
2018-Jun-16 15:59N 30°04' W 093°22'0 0.0
2018-Jun-16 15:30N 30°04' W 093°22'0 0.0
2018-Jun-16 15:00N 30°04' W 093°22'0 0.0
2018-Jun-16 14:29N 30°04' W 093°22'0 0.0
2018-Jun-16 14:00N 30°04' W 093°22'0 0.0
2018-Jun-16 13:26N 30°04' W 093°22'0 0.0
2018-Jun-16 13:00N 30°04' W 093°22'0 0.0
2018-Jun-16 12:29N 30°04' W 093°22'0 0.0
2018-Jun-16 11:59N 30°04' W 093°22'0 0.0
2018-Jun-16 11:30N 30°04' W 093°22'0 0.0
2018-Jun-16 11:00N 30°04' W 093°22'0 0.0
2018-Jun-16 10:30N 30°04' W 093°22'0 0.0
2018-Jun-16 10:00N 30°04' W 093°22'0 0.0
2018-Jun-16 09:30N 30°04' W 093°22'0 0.0
2018-Jun-16 09:00N 30°04' W 093°22'0 0.0
2018-Jun-16 08:30N 30°04' W 093°22'0 0.0
2018-Jun-16 08:00N 30°04' W 093°22'0 0.0
2018-Jun-16 07:30N 30°04' W 093°22'0 0.0
2018-Jun-16 06:58N 30°04' W 093°22'0 0.0
2018-Jun-16 06:30N 30°04' W 093°22'0 0.0
2018-Jun-16 06:00N 30°04' W 093°22'0 0.0
2018-Jun-16 05:30N 30°04' W 093°22'0 0.0
2018-Jun-16 05:00N 30°04' W 093°22'0 0.0
2018-Jun-16 04:30N 30°04' W 093°22'0 0.0
2018-Jun-16 04:00N 30°04' W 093°22'0 0.0
2018-Jun-16 03:30N 30°04' W 093°22'0 0.0
2018-Jun-16 03:00N 30°04' W 093°22'0 0.0
2018-Jun-16 02:30N 30°04' W 093°22'0 0.0
2018-Jun-16 02:00N 30°04' W 093°22'0 0.0
2018-Jun-16 01:30N 30°04' W 093°22'0 0.0
2018-Jun-16 01:00N 30°04' W 093°22'0 0.0
2018-Jun-16 00:30N 30°04' W 093°22'0 0.0
2018-Jun-15 23:58N 30°04' W 093°22'1 1.2
2018-Jun-15 23:30N 30°04' W 093°21'3 6.1
2018-Jun-15 23:00N 30°07' W 093°20'3 5.8
2018-Jun-15 22:30N 30°10' W 093°19'2 3.1
2018-Jun-15 22:00N 30°08' W 093°20'3 6.5
2018-Jun-15 21:30N 30°05' W 093°20'2 3.6
2018-Jun-15 21:00N 30°04' W 093°22'0 0.0
2018-Jun-15 20:30N 30°04' W 093°22'0 0.0
2018-Jun-15 20:00N 30°04' W 093°22'0 0.0
2018-Jun-15 19:30N 30°04' W 093°22'0 0.0
2018-Jun-15 19:00N 30°04' W 093°22'0 0.0
2018-Jun-15 18:30N 30°04' W 093°22'0 0.0
2018-Jun-15 18:00N 30°04' W 093°22'0 0.0
2018-Jun-15 17:30N 30°04' W 093°22'0 0.0
2018-Jun-15 17:00N 30°04' W 093°22'0 0.0
2018-Jun-15 16:30N 30°04' W 093°22'0 0.0
2018-Jun-15 16:00N 30°04' W 093°22'0 0.0
2018-Jun-15 15:30N 30°04' W 093°22'0 0.0
2018-Jun-15 15:00N 30°04' W 093°22'0 0.0
2018-Jun-15 14:30N 30°04' W 093°22'0 0.0
2018-Jun-15 14:00N 30°04' W 093°22'0 0.0
2018-Jun-15 13:30N 30°04' W 093°22'0 0.0
2018-Jun-15 13:00N 30°04' W 093°22'0 0.0
2018-Jun-15 12:30N 30°04' W 093°22'0 0.0
2018-Jun-15 12:00N 30°04' W 093°22'0 0.0
2018-Jun-15 11:30N 30°04' W 093°22'0 0.0
2018-Jun-15 11:00N 30°04' W 093°22'0 0.0
2018-Jun-15 10:30N 30°04' W 093°22'0 0.0
2018-Jun-15 10:00N 30°04' W 093°22'0 0.0
2018-Jun-15 09:30N 30°04' W 093°22'0 0.4
2018-Jun-15 09:01N 30°04' W 093°21'0 0.3
2018-Jun-15 08:30N 30°04' W 093°22'0 0.0
2018-Jun-15 08:00N 30°04' W 093°22'0 0.0
2018-Jun-15 07:30N 30°04' W 093°22'0 0.0
2018-Jun-15 07:00N 30°04' W 093°22'0 0.0
2018-Jun-15 06:30N 30°04' W 093°22'0 0.0
2018-Jun-15 06:00N 30°04' W 093°22'0 0.0
2018-Jun-15 05:30N 30°04' W 093°22'0 0.0
2018-Jun-15 05:00N 30°04' W 093°22'0 0.0
2018-Jun-15 04:30N 30°04' W 093°22'0 0.0
2018-Jun-15 04:00N 30°04' W 093°22'0 0.0
2018-Jun-15 03:30N 30°04' W 093°22'0 0.4
2018-Jun-15 02:58N 30°04' W 093°21'0 0.0
2018-Jun-15 02:30N 30°04' W 093°21'0 0.0
2018-Jun-15 02:00N 30°04' W 093°21'0 0.0
2018-Jun-15 01:30N 30°04' W 093°21'0 0.0
2018-Jun-15 01:01N 30°04' W 093°21'0 0.4
2018-Jun-15 00:30N 30°04' W 093°22'0 0.5
2018-Jun-15 00:00N 30°04' W 093°21'0 0.1
2018-Jun-14 23:30N 30°04' W 093°21'0 0.0
2018-Jun-14 23:00N 30°04' W 093°21'0 0.0
2018-Jun-14 22:30N 30°04' W 093°21'0 0.0
2018-Jun-14 22:00N 30°04' W 093°21'0 0.0
2018-Jun-14 21:30N 30°04' W 093°21'0 0.0
2018-Jun-14 21:00N 30°04' W 093°21'0 0.0
2018-Jun-14 20:30N 30°04' W 093°21'0 0.3
2018-Jun-14 19:59N 30°04' W 093°21'0 0.0
2018-Jun-14 19:30N 30°04' W 093°21'0 0.0
2018-Jun-14 19:00N 30°04' W 093°21'0 0.0
2018-Jun-14 18:30N 30°04' W 093°21'0 0.0
2018-Jun-14 18:00N 30°04' W 093°21'0 0.0
2018-Jun-14 17:30N 30°04' W 093°21'0 0.0
2018-Jun-14 17:00N 30°04' W 093°21'0 0.0
2018-Jun-14 16:30N 30°04' W 093°21'0 0.0
2018-Jun-14 16:00N 30°04' W 093°21'0 0.0
2018-Jun-14 15:30N 30°04' W 093°21'0 0.0
2018-Jun-14 15:00N 30°04' W 093°21'0 0.0
2018-Jun-14 14:29N 30°04' W 093°21'0 0.7
2018-Jun-14 14:01N 30°04' W 093°22'0 0.1
2018-Jun-14 13:30N 30°04' W 093°22'0 0.0
2018-Jun-14 13:00N 30°04' W 093°22'0 0.0
2018-Jun-14 12:30N 30°04' W 093°22'0 0.0
2018-Jun-14 12:00N 30°04' W 093°22'0 0.0
2018-Jun-14 11:30N 30°04' W 093°22'0 0.0
2018-Jun-14 11:00N 30°04' W 093°22'0 0.0
2018-Jun-14 10:30N 30°04' W 093°22'0 0.0
2018-Jun-14 10:00N 30°04' W 093°22'0 0.0
2018-Jun-14 09:30N 30°04' W 093°22'0 0.0
2018-Jun-14 09:00N 30°04' W 093°22'0 0.0
2018-Jun-14 08:30N 30°04' W 093°22'0 0.0
2018-Jun-14 08:00N 30°04' W 093°22'0 0.0
2018-Jun-14 07:30N 30°04' W 093°22'0 0.0
2018-Jun-14 07:00N 30°04' W 093°22'0 0.0
2018-Jun-14 06:30N 30°04' W 093°22'0 0.0
2018-Jun-14 06:00N 30°04' W 093°22'0 0.0
2018-Jun-14 05:30N 30°04' W 093°22'0 0.0
2018-Jun-14 05:00N 30°04' W 093°22'0 0.0
2018-Jun-14 04:30N 30°04' W 093°22'0 0.0
2018-Jun-14 04:00N 30°04' W 093°22'0 0.5
2018-Jun-14 03:30N 30°04' W 093°21'0 0.0
2018-Jun-14 02:58N 30°04' W 093°21'0 0.0
2018-Jun-14 02:28N 30°04' W 093°21'0 0.9
2018-Jun-14 02:00N 30°04' W 093°22'0 0.3
2018-Jun-14 01:30N 30°04' W 093°22'0 0.0
2018-Jun-14 01:00N 30°04' W 093°22'1 1.4
2018-Jun-14 00:30N 30°04' W 093°21'2 3.2
2018-Jun-14 00:00N 30°05' W 093°20'3 5.3
2018-Jun-13 23:30N 30°08' W 093°20'3 5.6
2018-Jun-13 23:00N 30°11' W 093°19'2 3.7
2018-Jun-13 22:30N 30°12' W 093°17'0 0.2
2018-Jun-13 22:00N 30°12' W 093°17'0 0.0
2018-Jun-13 21:30N 30°12' W 093°17'0 0.0
2018-Jun-13 21:00N 30°12' W 093°17'0 0.0
2018-Jun-13 20:30N 30°12' W 093°17'0 0.0
2018-Jun-13 20:00N 30°12' W 093°17'0 0.0
2018-Jun-13 19:30N 30°12' W 093°17'0 0.0
2018-Jun-13 19:00N 30°12' W 093°17'0 0.0
2018-Jun-13 18:30N 30°12' W 093°17'0 0.0
2018-Jun-13 18:00N 30°12' W 093°17'0 0.0
2018-Jun-13 17:30N 30°12' W 093°17'0 0.0
2018-Jun-13 17:00N 30°12' W 093°17'0 0.0
2018-Jun-13 16:30N 30°12' W 093°17'0 0.0
2018-Jun-13 16:00N 30°12' W 093°17'0 0.0
2018-Jun-13 15:30N 30°12' W 093°17'0 0.0
2018-Jun-13 15:00N 30°12' W 093°17'0 0.0
2018-Jun-13 14:30N 30°12' W 093°17'0 0.0
2018-Jun-13 14:00N 30°12' W 093°17'0 0.0
2018-Jun-13 13:30N 30°12' W 093°17'0 0.0
2018-Jun-13 13:00N 30°12' W 093°17'0 0.0
2018-Jun-13 12:30N 30°12' W 093°17'0 0.0
2018-Jun-13 12:00N 30°12' W 093°17'0 0.0
2018-Jun-13 11:30N 30°12' W 093°17'0 0.1
2018-Jun-13 11:00N 30°12' W 093°17'0 0.2
2018-Jun-13 10:30N 30°12' W 093°17'0 0.0
2018-Jun-13 10:00N 30°12' W 093°17'0 0.0
2018-Jun-13 09:30N 30°12' W 093°17'0 0.0
2018-Jun-13 09:00N 30°12' W 093°17'0 0.0
2018-Jun-13 08:30N 30°12' W 093°17'0 0.0
2018-Jun-13 08:00N 30°12' W 093°17'0 0.0
2018-Jun-13 07:30N 30°12' W 093°17'0 0.0
2018-Jun-13 07:00N 30°12' W 093°17'0 0.0
2018-Jun-13 06:30N 30°12' W 093°17'2 3.7
2018-Jun-13 06:00N 30°10' W 093°19'2 4.6
2018-Jun-13 05:30N 30°08' W 093°20'2 4.9
2018-Jun-13 05:00N 30°06' W 093°20'2 4.2
2018-Jun-13 04:30N 30°04' W 093°21'2 3.9
2018-Jun-13 04:00N 30°04' W 093°23'2 3.8
2018-Jun-13 03:30N 30°04' W 093°25'2 3.7
2018-Jun-13 03:00N 30°04' W 093°27'3 5.6
2018-Jun-13 02:30N 30°04' W 093°31'3 5.5
2018-Jun-13 02:00N 30°04' W 093°34'3 5.6
2018-Jun-13 01:30N 30°04' W 093°37'3 6.0
2018-Jun-13 01:00N 30°04' W 093°41'3 5.9
2018-Jun-13 00:30N 30°03' W 093°44'3 6.2
2018-Jun-13 00:00N 30°00' W 093°46'3 6.2
2018-Jun-12 23:30N 29°59' W 093°49'3 5.3
2018-Jun-12 23:00N 29°57' W 093°52'4 7.2
2018-Jun-12 22:30N 29°54' W 093°54'4 7.2
2018-Jun-12 22:00N 29°51' W 093°56'3 5.7
2018-Jun-12 21:30N 29°49' W 093°58'2 4.4
2018-Jun-12 21:00N 29°48' W 094°00'3 5.5
2018-Jun-12 20:30N 29°46' W 094°03'3 5.4
2018-Jun-12 20:00N 29°44' W 094°05'3 5.4
2018-Jun-12 19:30N 29°43' W 094°08'3 5.2
2018-Jun-12 19:00N 29°41' W 094°10'2 4.9
2018-Jun-12 18:30N 29°40' W 094°13'3 5.4
2018-Jun-12 18:00N 29°39' W 094°16'3 5.3
2018-Jun-12 17:30N 29°38' W 094°18'3 5.3
2018-Jun-12 16:58N 29°37' W 094°21'2 4.7
2018-Jun-12 16:30N 29°36' W 094°24'2 3.9
2018-Jun-12 16:00N 29°34' W 094°25'3 4.9
2018-Jun-12 15:29N 29°33' W 094°28'3 5.2
2018-Jun-12 15:00N 29°31' W 094°30'10 5.2
2018-Jun-12 13:05N 29°28' W 094°40'0 5.2
2018-Jun-12 13:00N 29°27' W 094°41'3 5.2
2018-Jun-12 12:29N 29°26' W 094°43'3 4.4
2018-Jun-12 11:46N 29°24' W 094°46'1 5.1
2018-Jun-12 11:30N 29°23' W 094°47'2 3.4
2018-Jun-12 11:00N 29°23' W 094°49'13 5.3
2018-Jun-12 08:36N 29°34' W 094°56'1 6.1
2018-Jun-12 08:25N 29°35' W 094°56'4 6.2
2018-Jun-12 07:47N 29°39' W 094°58'2 6.0
2018-Jun-12 07:22N 29°41' W 094°59'  
Track history (hours):
 
Tides and Currents Weather Stations Pressure Air Temp Water Temp Dewpoint Dewpoint Depression Visibility Wind Speed Wind Dir Waves Ship Positions

Scott Camp

Owner: Florida Marine Transporters, Inc., Mandeville, LA. More information available from US FCC via Universal Licensing System and Coast Guard Vessel Documentation Center.

Last reported at 2018-Jun-21 08:35 UTC. Time now 2018-Jun-21 23:59 UTC.
Position N 29°46' W 095°06'.

Length 27 m; draft 2.5 m.

Type: Towing. MMSI: 367437150.

Date/timePositionNaut miles runAvg speedWind from/ knotsBaromVisibWave heightAir tempDewpointWater temp
2018-Jun-21 08:35N 29°46' W 095°06'0 0.0
2018-Jun-21 08:11N 29°46' W 095°06'0 0.0
2018-Jun-21 07:54N 29°46' W 095°06'0 0.0
2018-Jun-21 07:20N 29°46' W 095°06'0 0.0
2018-Jun-21 07:00N 29°46' W 095°06'0 0.0
2018-Jun-21 06:30N 29°46' W 095°06'0 0.0
2018-Jun-21 06:00N 29°46' W 095°06'0 0.0
2018-Jun-21 05:21N 29°46' W 095°06'2 0.1
2018-Jun-20 01:45N 29°47' W 095°04'0 0.0
2018-Jun-20 01:23N 29°47' W 095°04'5 3.5
2018-Jun-20 00:03N 29°43' W 095°01'1 7.0
2018-Jun-19 23:55N 29°42' W 095°01'3 6.3
2018-Jun-19 23:25N 29°40' W 094°58'3 6.9
2018-Jun-19 22:59N 29°37' W 094°57'14 7.7
2018-Jun-19 21:08N 29°25' W 094°49'2 7.8
2018-Jun-19 20:55N 29°23' W 094°49'2 4.6
2018-Jun-19 20:30N 29°23' W 094°47'3 5.9
2018-Jun-19 19:58N 29°25' W 094°44'5 6.6
2018-Jun-19 19:09N 29°28' W 094°39'1 6.9
2018-Jun-19 18:58N 29°29' W 094°37'4 6.6
2018-Jun-19 18:25N 29°30' W 094°34'3 6.4
2018-Jun-19 17:58N 29°31' W 094°30'2 4.6
2018-Jun-19 17:29N 29°32' W 094°29'2 2.7
2018-Jun-19 16:54N 29°34' W 094°27'3 6.0
2018-Jun-19 16:28N 29°35' W 094°25'2 4.2
2018-Jun-19 16:00N 29°36' W 094°23'3 5.6
2018-Jun-19 15:30N 29°37' W 094°20'3 6.4
2018-Jun-19 15:00N 29°39' W 094°17'3 6.5
2018-Jun-19 14:30N 29°40' W 094°13'3 6.3
2018-Jun-19 14:00N 29°41' W 094°10'3 5.5
2018-Jun-19 13:30N 29°43' W 094°07'3 6.3
2018-Jun-19 13:00N 29°45' W 094°05'3 6.1
2018-Jun-19 12:30N 29°47' W 094°02'3 5.7
2018-Jun-19 12:00N 29°49' W 093°60'1 2.6
2018-Jun-19 11:31N 29°49' W 093°58'0 0.0
2018-Jun-19 11:00N 29°49' W 093°58'0 0.0
2018-Jun-19 10:30N 29°49' W 093°58'0 0.0
2018-Jun-19 10:00N 29°49' W 093°58'0 0.0
2018-Jun-19 09:30N 29°49' W 093°58'0 0.0
2018-Jun-19 09:00N 29°49' W 093°58'0 0.0
2018-Jun-19 08:30N 29°49' W 093°58'0 0.0
2018-Jun-19 08:00N 29°49' W 093°58'0 0.0
2018-Jun-19 07:30N 29°49' W 093°58'0 0.0
2018-Jun-19 07:00N 29°49' W 093°58'0 0.0
2018-Jun-19 06:30N 29°49' W 093°58'0 0.0
2018-Jun-19 06:00N 29°49' W 093°58'0 0.0
2018-Jun-19 05:30N 29°49' W 093°58'0 0.0
2018-Jun-19 05:00N 29°49' W 093°58'0 0.0
2018-Jun-19 04:30N 29°49' W 093°58'0 0.0
2018-Jun-19 04:00N 29°49' W 093°58'0 0.0
2018-Jun-19 03:30N 29°49' W 093°58'0 0.0
2018-Jun-19 03:00N 29°49' W 093°58'0 0.0
2018-Jun-19 02:30N 29°49' W 093°58'0 0.0
2018-Jun-19 02:00N 29°49' W 093°58'0 0.0
2018-Jun-19 01:30N 29°49' W 093°58'0 0.0
2018-Jun-19 01:00N 29°49' W 093°58'0 0.0
2018-Jun-19 00:30N 29°49' W 093°58'0 0.0
2018-Jun-19 00:00N 29°49' W 093°58'0 0.0
2018-Jun-18 23:30N 29°49' W 093°58'0 0.0
2018-Jun-18 23:00N 29°49' W 093°58'0 0.0
2018-Jun-18 22:30N 29°49' W 093°58'2 3.6
2018-Jun-18 22:00N 29°51' W 093°57'4 8.3
2018-Jun-18 21:30N 29°54' W 093°54'4 8.5
2018-Jun-18 21:00N 29°58' W 093°51'3 6.9
2018-Jun-18 20:30N 29°59' W 093°48'4 7.4
2018-Jun-18 20:00N 30°01' W 093°45'3 6.3
2018-Jun-18 19:30N 30°03' W 093°42'3 6.2
2018-Jun-18 19:00N 30°04' W 093°38'3 5.9
2018-Jun-18 18:30N 30°04' W 093°35'3 6.3
2018-Jun-18 18:00N 30°04' W 093°31'3 6.5
2018-Jun-18 17:30N 30°04' W 093°27'3 6.5
2018-Jun-18 17:00N 30°04' W 093°24'3 5.7
2018-Jun-18 16:30N 30°04' W 093°21'0 0.8
2018-Jun-18 16:00N 30°05' W 093°20'2 3.8
2018-Jun-18 15:30N 30°07' W 093°20'3 5.9
2018-Jun-18 15:00N 30°09' W 093°20'0 0.3
2018-Jun-18 14:30N 30°10' W 093°19'0 0.0
2018-Jun-18 14:00N 30°10' W 093°19'0 0.0
2018-Jun-18 13:30N 30°10' W 093°19'0 0.0
2018-Jun-18 12:58N 30°10' W 093°19'0 0.0
2018-Jun-18 12:30N 30°10' W 093°19'0 0.0
2018-Jun-18 12:00N 30°10' W 093°19'0 0.0
2018-Jun-18 11:30N 30°10' W 093°19'0 0.0
2018-Jun-18 11:00N 30°10' W 093°19'0 0.0
2018-Jun-18 10:30N 30°10' W 093°19'0 0.0
2018-Jun-18 10:00N 30°10' W 093°19'0 0.0
2018-Jun-18 09:30N 30°10' W 093°19'0 0.0
2018-Jun-18 09:00N 30°10' W 093°19'0 0.0
2018-Jun-18 08:30N 30°10' W 093°19'0 0.0
2018-Jun-18 08:00N 30°10' W 093°19'0 0.0
2018-Jun-18 07:30N 30°10' W 093°19'0 0.0
2018-Jun-18 07:00N 30°10' W 093°19'0 0.0
2018-Jun-18 06:30N 30°10' W 093°19'0 0.0
2018-Jun-18 06:00N 30°10' W 093°19'0 0.0
2018-Jun-18 05:30N 30°10' W 093°19'0 0.0
2018-Jun-18 05:00N 30°10' W 093°19'0 0.0
2018-Jun-18 04:30N 30°10' W 093°19'0 0.0
2018-Jun-18 04:00N 30°10' W 093°19'0 0.0
2018-Jun-18 03:30N 30°10' W 093°19'0 0.0
2018-Jun-18 03:00N 30°10' W 093°19'0 0.0
2018-Jun-18 02:30N 30°10' W 093°19'0 0.0
2018-Jun-18 01:58N 30°10' W 093°19'0 0.0
2018-Jun-18 01:30N 30°10' W 093°19'0 0.0
2018-Jun-18 01:00N 30°10' W 093°19'0 0.0
2018-Jun-18 00:30N 30°10' W 093°19'0 0.0
2018-Jun-17 23:59N 30°10' W 093°19'0 0.0
2018-Jun-17 23:30N 30°10' W 093°19'0 0.0
2018-Jun-17 23:00N 30°10' W 093°19'2 3.2
2018-Jun-17 22:30N 30°08' W 093°20'3 5.3
2018-Jun-17 22:00N 30°05' W 093°20'1 2.5
2018-Jun-17 21:30N 30°04' W 093°20'1 2.5
2018-Jun-17 21:00N 30°04' W 093°22'0 0.1
2018-Jun-17 20:30N 30°04' W 093°22'0 0.0
2018-Jun-17 20:00N 30°04' W 093°22'0 0.0
2018-Jun-17 19:30N 30°04' W 093°22'0 0.0
2018-Jun-17 19:00N 30°04' W 093°22'0 0.0
2018-Jun-17 18:30N 30°04' W 093°22'0 0.0
2018-Jun-17 18:00N 30°04' W 093°22'0 0.0
2018-Jun-17 17:30N 30°04' W 093°22'2 4.4
2018-Jun-17 16:59N 30°05' W 093°20'3 7.2
2018-Jun-17 16:30N 30°09' W 093°20'3 5.2
2018-Jun-17 16:00N 30°11' W 093°19'4 7.6
2018-Jun-17 15:30N 30°07' W 093°20'3 6.5
2018-Jun-17 15:00N 30°04' W 093°21'1 2.0
2018-Jun-17 14:30N 30°04' W 093°22'0 0.7
2018-Jun-17 14:00N 30°04' W 093°21'0 0.0
2018-Jun-17 13:30N 30°04' W 093°21'0 0.0
2018-Jun-17 13:00N 30°04' W 093°21'0 0.0
2018-Jun-17 12:30N 30°04' W 093°21'0 0.0
2018-Jun-17 12:00N 30°04' W 093°21'0 0.0
2018-Jun-17 11:30N 30°04' W 093°21'0 0.0
2018-Jun-17 11:00N 30°04' W 093°21'0 0.0
2018-Jun-17 10:30N 30°04' W 093°21'0 0.0
2018-Jun-17 10:00N 30°04' W 093°21'0 0.0
2018-Jun-17 09:30N 30°04' W 093°21'0 0.0
2018-Jun-17 09:00N 30°04' W 093°21'0 0.0
2018-Jun-17 08:29N 30°04' W 093°21'0 0.0
2018-Jun-17 08:00N 30°04' W 093°21'0 0.0
2018-Jun-17 07:30N 30°04' W 093°21'0 0.0
2018-Jun-17 07:00N 30°04' W 093°21'0 0.0
2018-Jun-17 06:30N 30°04' W 093°21'0 0.0
2018-Jun-17 06:00N 30°04' W 093°21'0 0.0
2018-Jun-17 05:25N 30°04' W 093°21'0 0.0
2018-Jun-17 05:00N 30°04' W 093°21'0 0.0
2018-Jun-17 04:30N 30°04' W 093°21'0 0.0
2018-Jun-17 04:00N 30°04' W 093°21'0 0.0
2018-Jun-17 03:30N 30°04' W 093°21'0 0.0
2018-Jun-17 03:00N 30°04' W 093°21'0 0.0
2018-Jun-17 02:30N 30°04' W 093°21'0 0.0
2018-Jun-17 02:00N 30°04' W 093°21'0 0.0
2018-Jun-17 01:30N 30°04' W 093°21'0 0.0
2018-Jun-17 01:00N 30°04' W 093°21'0 0.0
2018-Jun-17 00:30N 30°04' W 093°21'0 0.0
2018-Jun-17 00:00N 30°04' W 093°21'0 0.0
2018-Jun-16 23:30N 30°04' W 093°21'0 0.0
2018-Jun-16 23:00N 30°04' W 093°21'0 0.0
2018-Jun-16 22:30N 30°04' W 093°21'0 0.0
2018-Jun-16 22:00N 30°04' W 093°21'0 0.0
2018-Jun-16 21:30N 30°04' W 093°21'0 0.0
2018-Jun-16 21:00N 30°04' W 093°21'0 0.0
2018-Jun-16 20:30N 30°04' W 093°21'0 0.0
2018-Jun-16 20:00N 30°04' W 093°21'0 0.0
2018-Jun-16 19:30N 30°04' W 093°21'0 0.0
2018-Jun-16 19:00N 30°04' W 093°21'0 0.0
2018-Jun-16 18:30N 30°04' W 093°21'0 0.0
2018-Jun-16 18:00N 30°04' W 093°21'0 0.0
2018-Jun-16 17:30N 30°04' W 093°21'0 0.0
2018-Jun-16 17:00N 30°04' W 093°21'0 0.0
2018-Jun-16 16:30N 30°04' W 093°21'0 0.6
2018-Jun-16 15:59N 30°04' W 093°22'0 0.0
2018-Jun-16 15:30N 30°04' W 093°22'0 0.0
2018-Jun-16 15:00N 30°04' W 093°22'0 0.0
2018-Jun-16 14:29N 30°04' W 093°22'0 0.0
2018-Jun-16 14:00N 30°04' W 093°22'0 0.0
2018-Jun-16 13:26N 30°04' W 093°22'0 0.0
2018-Jun-16 13:00N 30°04' W 093°22'0 0.0
2018-Jun-16 12:29N 30°04' W 093°22'0 0.0
2018-Jun-16 11:59N 30°04' W 093°22'0 0.0
2018-Jun-16 11:30N 30°04' W 093°22'0 0.0
2018-Jun-16 11:00N 30°04' W 093°22'0 0.0
2018-Jun-16 10:30N 30°04' W 093°22'0 0.0
2018-Jun-16 10:00N 30°04' W 093°22'0 0.0
2018-Jun-16 09:30N 30°04' W 093°22'0 0.0
2018-Jun-16 09:00N 30°04' W 093°22'0 0.0
2018-Jun-16 08:30N 30°04' W 093°22'0 0.0
2018-Jun-16 08:00N 30°04' W 093°22'0 0.0
2018-Jun-16 07:30N 30°04' W 093°22'0 0.0
2018-Jun-16 06:58N 30°04' W 093°22'0 0.0
2018-Jun-16 06:30N 30°04' W 093°22'0 0.0
2018-Jun-16 06:00N 30°04' W 093°22'0 0.0
2018-Jun-16 05:30N 30°04' W 093°22'0 0.0
2018-Jun-16 05:00N 30°04' W 093°22'0 0.0
2018-Jun-16 04:30N 30°04' W 093°22'0 0.0
2018-Jun-16 04:00N 30°04' W 093°22'0 0.0
2018-Jun-16 03:30N 30°04' W 093°22'0 0.0
2018-Jun-16 03:00N 30°04' W 093°22'0 0.0
2018-Jun-16 02:30N 30°04' W 093°22'0 0.0
2018-Jun-16 02:00N 30°04' W 093°22'0 0.0
2018-Jun-16 01:30N 30°04' W 093°22'0 0.0
2018-Jun-16 01:00N 30°04' W 093°22'0 0.0
2018-Jun-16 00:30N 30°04' W 093°22'0 0.0
2018-Jun-15 23:58N 30°04' W 093°22'1 1.2
2018-Jun-15 23:30N 30°04' W 093°21'3 6.1
2018-Jun-15 23:00N 30°07' W 093°20'3 5.8
2018-Jun-15 22:30N 30°10' W 093°19'2 3.1
2018-Jun-15 22:00N 30°08' W 093°20'3 6.5
2018-Jun-15 21:30N 30°05' W 093°20'2 3.6
2018-Jun-15 21:00N 30°04' W 093°22'0 0.0
2018-Jun-15 20:30N 30°04' W 093°22'0 0.0
2018-Jun-15 20:00N 30°04' W 093°22'0 0.0
2018-Jun-15 19:30N 30°04' W 093°22'0 0.0
2018-Jun-15 19:00N 30°04' W 093°22'0 0.0
2018-Jun-15 18:30N 30°04' W 093°22'0 0.0
2018-Jun-15 18:00N 30°04' W 093°22'0 0.0
2018-Jun-15 17:30N 30°04' W 093°22'0 0.0
2018-Jun-15 17:00N 30°04' W 093°22'0 0.0
2018-Jun-15 16:30N 30°04' W 093°22'0 0.0
2018-Jun-15 16:00N 30°04' W 093°22'0 0.0
2018-Jun-15 15:30N 30°04' W 093°22'0 0.0
2018-Jun-15 15:00N 30°04' W 093°22'0 0.0
2018-Jun-15 14:30N 30°04' W 093°22'0 0.0
2018-Jun-15 14:00N 30°04' W 093°22'0 0.0
2018-Jun-15 13:30N 30°04' W 093°22'0 0.0
2018-Jun-15 13:00N 30°04' W 093°22'0 0.0
2018-Jun-15 12:30N 30°04' W 093°22'0 0.0
2018-Jun-15 12:00N 30°04' W 093°22'0 0.0
2018-Jun-15 11:30N 30°04' W 093°22'0 0.0
2018-Jun-15 11:00N 30°04' W 093°22'0 0.0
2018-Jun-15 10:30N 30°04' W 093°22'0 0.0
2018-Jun-15 10:00N 30°04' W 093°22'0 0.0
2018-Jun-15 09:30N 30°04' W 093°22'0 0.4
2018-Jun-15 09:01N 30°04' W 093°21'0 0.3
2018-Jun-15 08:30N 30°04' W 093°22'0 0.0
2018-Jun-15 08:00N 30°04' W 093°22'0 0.0
2018-Jun-15 07:30N 30°04' W 093°22'0 0.0
2018-Jun-15 07:00N 30°04' W 093°22'0 0.0
2018-Jun-15 06:30N 30°04' W 093°22'0 0.0
2018-Jun-15 06:00N 30°04' W 093°22'0 0.0
2018-Jun-15 05:30N 30°04' W 093°22'0 0.0
2018-Jun-15 05:00N 30°04' W 093°22'0 0.0
2018-Jun-15 04:30N 30°04' W 093°22'0 0.0
2018-Jun-15 04:00N 30°04' W 093°22'0 0.0
2018-Jun-15 03:30N 30°04' W 093°22'0 0.4
2018-Jun-15 02:58N 30°04' W 093°21'0 0.0
2018-Jun-15 02:30N 30°04' W 093°21'0 0.0
2018-Jun-15 02:00N 30°04' W 093°21'0 0.0
2018-Jun-15 01:30N 30°04' W 093°21'0 0.0
2018-Jun-15 01:01N 30°04' W 093°21'0 0.4
2018-Jun-15 00:30N 30°04' W 093°22'0 0.5
2018-Jun-15 00:00N 30°04' W 093°21'0 0.1
2018-Jun-14 23:30N 30°04' W 093°21'0 0.0
2018-Jun-14 23:00N 30°04' W 093°21'0 0.0
2018-Jun-14 22:30N 30°04' W 093°21'0 0.0
2018-Jun-14 22:00N 30°04' W 093°21'0 0.0
2018-Jun-14 21:30N 30°04' W 093°21'0 0.0
2018-Jun-14 21:00N 30°04' W 093°21'0 0.0
2018-Jun-14 20:30N 30°04' W 093°21'0 0.3
2018-Jun-14 19:59N 30°04' W 093°21'0 0.0
2018-Jun-14 19:30N 30°04' W 093°21'0 0.0
2018-Jun-14 19:00N 30°04' W 093°21'0 0.0
2018-Jun-14 18:30N 30°04' W 093°21'0 0.0
2018-Jun-14 18:00N 30°04' W 093°21'0 0.0
2018-Jun-14 17:30N 30°04' W 093°21'0 0.0
2018-Jun-14 17:00N 30°04' W 093°21'0 0.0
2018-Jun-14 16:30N 30°04' W 093°21'0 0.0
2018-Jun-14 16:00N 30°04' W 093°21'0 0.0
2018-Jun-14 15:30N 30°04' W 093°21'0 0.0
2018-Jun-14 15:00N 30°04' W 093°21'0 0.0
2018-Jun-14 14:29N 30°04' W 093°21'0 0.7
2018-Jun-14 14:01N 30°04' W 093°22'0 0.1
2018-Jun-14 13:30N 30°04' W 093°22'0 0.0
2018-Jun-14 13:00N 30°04' W 093°22'0 0.0
2018-Jun-14 12:30N 30°04' W 093°22'0 0.0
2018-Jun-14 12:00N 30°04' W 093°22'0 0.0
2018-Jun-14 11:30N 30°04' W 093°22'0 0.0
2018-Jun-14 11:00N 30°04' W 093°22'0 0.0
2018-Jun-14 10:30N 30°04' W 093°22'0 0.0
2018-Jun-14 10:00N 30°04' W 093°22'0 0.0
2018-Jun-14 09:30N 30°04' W 093°22'0 0.0
2018-Jun-14 09:00N 30°04' W 093°22'0 0.0
2018-Jun-14 08:30N 30°04' W 093°22'0 0.0
2018-Jun-14 08:00N 30°04' W 093°22'0 0.0
2018-Jun-14 07:30N 30°04' W 093°22'0 0.0
2018-Jun-14 07:00N 30°04' W 093°22'0 0.0
2018-Jun-14 06:30N 30°04' W 093°22'0 0.0
2018-Jun-14 06:00N 30°04' W 093°22'0 0.0
2018-Jun-14 05:30N 30°04' W 093°22'0 0.0
2018-Jun-14 05:00N 30°04' W 093°22'0 0.0
2018-Jun-14 04:30N 30°04' W 093°22'0 0.0
2018-Jun-14 04:00N 30°04' W 093°22'0 0.5
2018-Jun-14 03:30N 30°04' W 093°21'0 0.0
2018-Jun-14 02:58N 30°04' W 093°21'0 0.0
2018-Jun-14 02:28N 30°04' W 093°21'0 0.9
2018-Jun-14 02:00N 30°04' W 093°22'0 0.3
2018-Jun-14 01:30N 30°04' W 093°22'0 0.0
2018-Jun-14 01:00N 30°04' W 093°22'1 1.4
2018-Jun-14 00:30N 30°04' W 093°21'2 3.2
2018-Jun-14 00:00N 30°05' W 093°20'3 5.3
2018-Jun-13 23:30N 30°08' W 093°20'3 5.6
2018-Jun-13 23:00N 30°11' W 093°19'2 3.7
2018-Jun-13 22:30N 30°12' W 093°17'0 0.2
2018-Jun-13 22:00N 30°12' W 093°17'0 0.0
2018-Jun-13 21:30N 30°12' W 093°17'0 0.0
2018-Jun-13 21:00N 30°12' W 093°17'0 0.0
2018-Jun-13 20:30N 30°12' W 093°17'0 0.0
2018-Jun-13 20:00N 30°12' W 093°17'0 0.0
2018-Jun-13 19:30N 30°12' W 093°17'0 0.0
2018-Jun-13 19:00N 30°12' W 093°17'0 0.0
2018-Jun-13 18:30N 30°12' W 093°17'0 0.0
2018-Jun-13 18:00N 30°12' W 093°17'0 0.0
2018-Jun-13 17:30N 30°12' W 093°17'0 0.0
2018-Jun-13 17:00N 30°12' W 093°17'0 0.0
2018-Jun-13 16:30N 30°12' W 093°17'0 0.0
2018-Jun-13 16:00N 30°12' W 093°17'0 0.0
2018-Jun-13 15:30N 30°12' W 093°17'0 0.0
2018-Jun-13 15:00N 30°12' W 093°17'0 0.0
2018-Jun-13 14:30N 30°12' W 093°17'0 0.0
2018-Jun-13 14:00N 30°12' W 093°17'0 0.0
2018-Jun-13 13:30N 30°12' W 093°17'0 0.0
2018-Jun-13 13:00N 30°12' W 093°17'0 0.0
2018-Jun-13 12:30N 30°12' W 093°17'0 0.0
2018-Jun-13 12:00N 30°12' W 093°17'0 0.0
2018-Jun-13 11:30N 30°12' W 093°17'0 0.1
2018-Jun-13 11:00N 30°12' W 093°17'0 0.2
2018-Jun-13 10:30N 30°12' W 093°17'0 0.0
2018-Jun-13 10:00N 30°12' W 093°17'0 0.0
2018-Jun-13 09:30N 30°12' W 093°17'0 0.0
2018-Jun-13 09:00N 30°12' W 093°17'0 0.0
2018-Jun-13 08:30N 30°12' W 093°17'0 0.0
2018-Jun-13 08:00N 30°12' W 093°17'0 0.0
2018-Jun-13 07:30N 30°12' W 093°17'0 0.0
2018-Jun-13 07:00N 30°12' W 093°17'0 0.0
2018-Jun-13 06:30N 30°12' W 093°17'2 3.7
2018-Jun-13 06:00N 30°10' W 093°19'2 4.6
2018-Jun-13 05:30N 30°08' W 093°20'2 4.9
2018-Jun-13 05:00N 30°06' W 093°20'2 4.2
2018-Jun-13 04:30N 30°04' W 093°21'2 3.9
2018-Jun-13 04:00N 30°04' W 093°23'2 3.8
2018-Jun-13 03:30N 30°04' W 093°25'2 3.7
2018-Jun-13 03:00N 30°04' W 093°27'3 5.6
2018-Jun-13 02:30N 30°04' W 093°31'3 5.5
2018-Jun-13 02:00N 30°04' W 093°34'3 5.6
2018-Jun-13 01:30N 30°04' W 093°37'3 6.0
2018-Jun-13 01:00N 30°04' W 093°41'3 5.9
2018-Jun-13 00:30N 30°03' W 093°44'3 6.2
2018-Jun-13 00:00N 30°00' W 093°46'3 6.2
2018-Jun-12 23:30N 29°59' W 093°49'3 5.3
2018-Jun-12 23:00N 29°57' W 093°52'4 7.2
2018-Jun-12 22:30N 29°54' W 093°54'4 7.2
2018-Jun-12 22:00N 29°51' W 093°56'3 5.7
2018-Jun-12 21:30N 29°49' W 093°58'2 4.4
2018-Jun-12 21:00N 29°48' W 094°00'3 5.5
2018-Jun-12 20:30N 29°46' W 094°03'3 5.4
2018-Jun-12 20:00N 29°44' W 094°05'3 5.4
2018-Jun-12 19:30N 29°43' W 094°08'3 5.2
2018-Jun-12 19:00N 29°41' W 094°10'2 4.9
2018-Jun-12 18:30N 29°40' W 094°13'3 5.4
2018-Jun-12 18:00N 29°39' W 094°16'3 5.3
2018-Jun-12 17:30N 29°38' W 094°18'3 5.3
2018-Jun-12 16:58N 29°37' W 094°21'2 4.7
2018-Jun-12 16:30N 29°36' W 094°24'2 3.9
2018-Jun-12 16:00N 29°34' W 094°25'3 4.9
2018-Jun-12 15:29N 29°33' W 094°28'3 5.2
2018-Jun-12 15:00N 29°31' W 094°30'10 5.2
2018-Jun-12 13:05N 29°28' W 094°40'0 5.2
2018-Jun-12 13:00N 29°27' W 094°41'3 5.2
2018-Jun-12 12:29N 29°26' W 094°43'3 4.4
2018-Jun-12 11:46N 29°24' W 094°46'1 5.1
2018-Jun-12 11:30N 29°23' W 094°47'2 3.4
2018-Jun-12 11:00N 29°23' W 094°49'13 5.3
2018-Jun-12 08:36N 29°34' W 094°56'1 6.1
2018-Jun-12 08:25N 29°35' W 094°56'4 6.2
2018-Jun-12 07:47N 29°39' W 094°58'2 6.0
2018-Jun-12 07:22N 29°41' W 094°59'  

Dump ship's entire track history